sensor_id;sensor_type;location;lat;lon;timestamp;P1;durP1;ratioP1;P2;durP2;ratioP2
26540;SDS011;14206;50.202;10.948;2023-04-01T00:01:26;4.43;;;1.15;;
26540;SDS011;14206;50.202;10.948;2023-04-01T00:03:53;3.15;;;0.90;;
26540;SDS011;14206;50.202;10.948;2023-04-01T00:06:20;2.30;;;0.98;;
26540;SDS011;14206;50.202;10.948;2023-04-01T00:08:48;2.95;;;0.95;;
26540;SDS011;14206;50.202;10.948;2023-04-01T00:11:15;2.25;;;0.90;;
26540;SDS011;14206;50.202;10.948;2023-04-01T00:13:45;4.05;;;1.23;;
26540;SDS011;14206;50.202;10.948;2023-04-01T00:16:13;3.13;;;0.90;;
26540;SDS011;14206;50.202;10.948;2023-04-01T00:18:47;3.85;;;1.30;;
26540;SDS011;14206;50.202;10.948;2023-04-01T00:21:15;2.80;;;1.00;;
26540;SDS011;14206;50.202;10.948;2023-04-01T00:23:42;6.20;;;1.50;;
26540;SDS011;14206;50.202;10.948;2023-04-01T00:26:10;5.28;;;1.20;;
26540;SDS011;14206;50.202;10.948;2023-04-01T00:28:38;6.43;;;1.25;;
26540;SDS011;14206;50.202;10.948;2023-04-01T00:31:06;5.45;;;1.20;;
26540;SDS011;14206;50.202;10.948;2023-04-01T00:33:34;3.83;;;1.02;;
26540;SDS011;14206;50.202;10.948;2023-04-01T00:36:05;4.05;;;1.13;;
26540;SDS011;14206;50.202;10.948;2023-04-01T00:38:40;4.45;;;1.20;;
26540;SDS011;14206;50.202;10.948;2023-04-01T00:41:09;2.25;;;1.02;;
26540;SDS011;14206;50.202;10.948;2023-04-01T00:43:41;4.10;;;1.27;;
26540;SDS011;14206;50.202;10.948;2023-04-01T00:46:13;2.88;;;1.00;;
26540;SDS011;14206;50.202;10.948;2023-04-01T00:48:44;4.35;;;1.30;;
26540;SDS011;14206;50.202;10.948;2023-04-01T00:51:19;3.50;;;1.30;;
26540;SDS011;14206;50.202;10.948;2023-04-01T00:53:50;4.75;;;1.30;;
26540;SDS011;14206;50.202;10.948;2023-04-01T00:56:20;3.90;;;1.00;;
26540;SDS011;14206;50.202;10.948;2023-04-01T00:58:51;3.58;;;1.10;;
26540;SDS011;14206;50.202;10.948;2023-04-01T01:01:27;4.93;;;1.33;;
26540;SDS011;14206;50.202;10.948;2023-04-01T01:03:55;4.05;;;1.15;;
26540;SDS011;14206;50.202;10.948;2023-04-01T01:10:07;3.40;;;1.33;;
26540;SDS011;14206;50.202;10.948;2023-04-01T01:12:13;3.05;;;1.00;;
26540;SDS011;14206;50.202;10.948;2023-04-01T01:18:05;3.75;;;1.17;;
26540;SDS011;14206;50.202;10.948;2023-04-01T01:38:15;3.83;;;1.23;;
26540;SDS011;14206;50.202;10.948;2023-04-01T01:40:50;3.85;;;1.00;;
26540;SDS011;14206;50.202;10.948;2023-04-01T01:43:27;3.20;;;0.80;;
26540;SDS011;14206;50.202;10.948;2023-04-01T01:46:00;3.35;;;1.10;;
26540;SDS011;14206;50.202;10.948;2023-04-01T01:48:33;3.50;;;1.33;;
26540;SDS011;14206;50.202;10.948;2023-04-01T01:51:02;2.13;;;0.80;;
26540;SDS011;14206;50.202;10.948;2023-04-01T01:53:33;1.85;;;0.90;;
26540;SDS011;14206;50.202;10.948;2023-04-01T01:56:00;4.20;;;1.02;;
26540;SDS011;14206;50.202;10.948;2023-04-01T01:58:32;4.03;;;1.00;;
26540;SDS011;14206;50.202;10.948;2023-04-01T02:01:12;4.07;;;1.30;;
26540;SDS011;14206;50.202;10.948;2023-04-01T02:03:45;3.42;;;1.00;;
26540;SDS011;14206;50.202;10.948;2023-04-01T02:06:15;3.45;;;0.90;;
26540;SDS011;14206;50.202;10.948;2023-04-01T02:08:45;3.50;;;1.02;;
26540;SDS011;14206;50.202;10.948;2023-04-01T02:11:19;3.00;;;1.10;;
26540;SDS011;14206;50.202;10.948;2023-04-01T02:14:20;2.58;;;1.17;;
26540;SDS011;14206;50.202;10.948;2023-04-01T02:17:04;2.83;;;0.90;;
26540;SDS011;14206;50.202;10.948;2023-04-01T02:19:38;2.30;;;0.80;;
26540;SDS011;14206;50.202;10.948;2023-04-01T02:22:12;6.38;;;1.17;;
26540;SDS011;14206;50.202;10.948;2023-04-01T02:24:42;5.07;;;0.98;;
26540;SDS011;14206;50.202;10.948;2023-04-01T02:27:11;3.03;;;0.82;;
26540;SDS011;14206;50.202;10.948;2023-04-01T02:29:38;2.65;;;1.15;;
26540;SDS011;14206;50.202;10.948;2023-04-01T02:32:06;3.97;;;1.13;;
26540;SDS011;14206;50.202;10.948;2023-04-01T02:34:34;2.05;;;1.13;;
26540;SDS011;14206;50.202;10.948;2023-04-01T02:37:02;3.03;;;1.02;;
26540;SDS011;14206;50.202;10.948;2023-04-01T02:39:29;2.85;;;1.05;;
26540;SDS011;14206;50.202;10.948;2023-04-01T02:41:56;2.58;;;0.95;;
26540;SDS011;14206;50.202;10.948;2023-04-01T02:44:23;4.03;;;1.15;;
26540;SDS011;14206;50.202;10.948;2023-04-01T02:46:50;3.78;;;1.10;;
26540;SDS011;14206;50.202;10.948;2023-04-01T02:49:16;6.63;;;1.00;;
26540;SDS011;14206;50.202;10.948;2023-04-01T02:51:44;4.07;;;0.93;;
26540;SDS011;14206;50.202;10.948;2023-04-01T02:54:11;4.78;;;1.00;;
26540;SDS011;14206;50.202;10.948;2023-04-01T02:56:38;3.15;;;0.95;;
26540;SDS011;14206;50.202;10.948;2023-04-01T02:59:04;2.78;;;0.88;;
26540;SDS011;14206;50.202;10.948;2023-04-01T03:01:31;3.28;;;1.00;;
26540;SDS011;14206;50.202;10.948;2023-04-01T03:03:58;2.67;;;0.80;;
26540;SDS011;14206;50.202;10.948;2023-04-01T03:06:25;2.05;;;0.80;;
26540;SDS011;14206;50.202;10.948;2023-04-01T03:08:52;2.28;;;0.80;;
26540;SDS011;14206;50.202;10.948;2023-04-01T03:11:19;2.55;;;0.80;;
26540;SDS011;14206;50.202;10.948;2023-04-01T03:13:47;3.50;;;0.98;;
26540;SDS011;14206;50.202;10.948;2023-04-01T03:16:14;3.03;;;0.85;;
26540;SDS011;14206;50.202;10.948;2023-04-01T03:18:41;2.38;;;0.82;;
26540;SDS011;14206;50.202;10.948;2023-04-01T03:21:42;3.53;;;1.27;;
26540;SDS011;14206;50.202;10.948;2023-04-01T03:24:02;3.28;;;0.80;;
26540;SDS011;14206;50.202;10.948;2023-04-01T03:26:28;2.80;;;0.98;;
26540;SDS011;14206;50.202;10.948;2023-04-01T03:28:56;3.75;;;1.27;;
26540;SDS011;14206;50.202;10.948;2023-04-01T03:31:23;4.47;;;1.00;;
26540;SDS011;14206;50.202;10.948;2023-04-01T03:33:54;3.95;;;1.20;;
26540;SDS011;14206;50.202;10.948;2023-04-01T03:36:21;2.95;;;0.90;;
26540;SDS011;14206;50.202;10.948;2023-04-01T03:38:48;3.55;;;1.50;;
26540;SDS011;14206;50.202;10.948;2023-04-01T03:41:21;2.97;;;1.17;;
26540;SDS011;14206;50.202;10.948;2023-04-01T03:43:48;6.70;;;1.60;;
26540;SDS011;14206;50.202;10.948;2023-04-01T03:46:17;4.80;;;1.25;;
26540;SDS011;14206;50.202;10.948;2023-04-01T03:48:46;3.30;;;1.30;;
26540;SDS011;14206;50.202;10.948;2023-04-01T03:51:12;2.70;;;0.75;;
26540;SDS011;14206;50.202;10.948;2023-04-01T03:53:40;3.20;;;1.10;;
26540;SDS011;14206;50.202;10.948;2023-04-01T03:56:07;2.90;;;0.93;;
26540;SDS011;14206;50.202;10.948;2023-04-01T03:58:35;2.95;;;0.90;;
26540;SDS011;14206;50.202;10.948;2023-04-01T04:01:20;4.03;;;1.08;;
26540;SDS011;14206;50.202;10.948;2023-04-01T04:03:51;2.90;;;0.88;;
26540;SDS011;14206;50.202;10.948;2023-04-01T04:06:20;4.75;;;1.20;;
26540;SDS011;14206;50.202;10.948;2023-04-01T04:08:47;2.70;;;1.02;;
26540;SDS011;14206;50.202;10.948;2023-04-01T04:11:15;3.58;;;1.00;;
26540;SDS011;14206;50.202;10.948;2023-04-01T04:13:42;5.25;;;1.10;;
26540;SDS011;14206;50.202;10.948;2023-04-01T04:16:09;2.72;;;1.05;;
26540;SDS011;14206;50.202;10.948;2023-04-01T04:18:41;4.65;;;0.98;;
26540;SDS011;14206;50.202;10.948;2023-04-01T04:21:11;6.90;;;1.17;;
26540;SDS011;14206;50.202;10.948;2023-04-01T04:23:40;3.92;;;1.38;;
26540;SDS011;14206;50.202;10.948;2023-04-01T04:26:09;3.53;;;1.10;;
26540;SDS011;14206;50.202;10.948;2023-04-01T04:28:38;3.15;;;1.00;;
26540;SDS011;14206;50.202;10.948;2023-04-01T04:31:05;4.18;;;0.90;;
26540;SDS011;14206;50.202;10.948;2023-04-01T04:33:34;2.50;;;1.10;;
26540;SDS011;14206;50.202;10.948;2023-04-01T04:36:03;2.35;;;0.98;;
26540;SDS011;14206;50.202;10.948;2023-04-01T04:38:31;3.90;;;1.30;;
26540;SDS011;14206;50.202;10.948;2023-04-01T04:40:58;2.75;;;0.90;;
26540;SDS011;14206;50.202;10.948;2023-04-01T04:43:25;3.10;;;1.00;;
26540;SDS011;14206;50.202;10.948;2023-04-01T04:45:52;3.25;;;1.08;;
26540;SDS011;14206;50.202;10.948;2023-04-01T04:48:19;2.97;;;0.90;;
26540;SDS011;14206;50.202;10.948;2023-04-01T04:50:47;4.20;;;1.17;;
26540;SDS011;14206;50.202;10.948;2023-04-01T04:53:18;2.65;;;0.70;;
26540;SDS011;14206;50.202;10.948;2023-04-01T04:55:46;2.03;;;0.98;;
26540;SDS011;14206;50.202;10.948;2023-04-01T04:58:38;2.38;;;0.90;;
26540;SDS011;14206;50.202;10.948;2023-04-01T05:01:09;3.15;;;1.10;;
26540;SDS011;14206;50.202;10.948;2023-04-01T05:03:39;3.45;;;0.80;;
26540;SDS011;14206;50.202;10.948;2023-04-01T05:06:06;2.38;;;0.95;;
26540;SDS011;14206;50.202;10.948;2023-04-01T05:08:35;3.97;;;1.10;;
26540;SDS011;14206;50.202;10.948;2023-04-01T05:11:02;3.42;;;0.93;;
26540;SDS011;14206;50.202;10.948;2023-04-01T05:13:32;3.22;;;0.93;;
26540;SDS011;14206;50.202;10.948;2023-04-01T05:15:58;2.70;;;0.98;;
26540;SDS011;14206;50.202;10.948;2023-04-01T05:18:25;4.72;;;0.95;;
26540;SDS011;14206;50.202;10.948;2023-04-01T05:20:53;4.03;;;0.95;;
26540;SDS011;14206;50.202;10.948;2023-04-01T05:23:21;2.17;;;1.00;;
26540;SDS011;14206;50.202;10.948;2023-04-01T05:25:48;4.63;;;1.08;;
26540;SDS011;14206;50.202;10.948;2023-04-01T05:28:17;3.70;;;0.95;;
26540;SDS011;14206;50.202;10.948;2023-04-01T05:30:46;3.20;;;0.80;;
26540;SDS011;14206;50.202;10.948;2023-04-01T05:33:20;2.10;;;0.90;;
26540;SDS011;14206;50.202;10.948;2023-04-01T05:35:47;5.60;;;1.25;;
26540;SDS011;14206;50.202;10.948;2023-04-01T05:38:14;3.25;;;1.00;;
26540;SDS011;14206;50.202;10.948;2023-04-01T05:40:41;5.57;;;1.13;;
26540;SDS011;14206;50.202;10.948;2023-04-01T05:43:08;2.55;;;0.90;;
26540;SDS011;14206;50.202;10.948;2023-04-01T05:45:35;3.03;;;0.80;;
26540;SDS011;14206;50.202;10.948;2023-04-01T05:48:30;3.60;;;0.95;;
26540;SDS011;14206;50.202;10.948;2023-04-01T05:50:57;4.18;;;0.95;;
26540;SDS011;14206;50.202;10.948;2023-04-01T05:53:24;3.72;;;0.80;;
26540;SDS011;14206;50.202;10.948;2023-04-01T05:55:50;2.20;;;0.73;;
26540;SDS011;14206;50.202;10.948;2023-04-01T05:58:17;2.58;;;0.98;;
26540;SDS011;14206;50.202;10.948;2023-04-01T06:00:46;4.30;;;0.88;;
26540;SDS011;14206;50.202;10.948;2023-04-01T06:03:15;1.83;;;0.80;;
26540;SDS011;14206;50.202;10.948;2023-04-01T06:05:43;2.72;;;1.08;;
26540;SDS011;14206;50.202;10.948;2023-04-01T06:08:15;2.65;;;0.90;;
26540;SDS011;14206;50.202;10.948;2023-04-01T06:31:06;1.33;;;0.50;;
26540;SDS011;14206;50.202;10.948;2023-04-01T06:33:46;0.85;;;0.50;;
26540;SDS011;14206;50.202;10.948;2023-04-01T06:42:15;2.60;;;0.63;;
26540;SDS011;14206;50.202;10.948;2023-04-01T06:45:17;1.95;;;0.77;;
26540;SDS011;14206;50.202;10.948;2023-04-01T06:51:22;1.63;;;0.57;;
26540;SDS011;14206;50.202;10.948;2023-04-01T06:54:17;2.78;;;0.82;;
26540;SDS011;14206;50.202;10.948;2023-04-01T06:59:39;1.15;;;0.50;;
26540;SDS011;14206;50.202;10.948;2023-04-01T07:04:46;1.23;;;0.70;;
26540;SDS011;14206;50.202;10.948;2023-04-01T07:07:20;1.77;;;0.50;;
26540;SDS011;14206;50.202;10.948;2023-04-01T07:10:11;2.55;;;0.60;;
26540;SDS011;14206;50.202;10.948;2023-04-01T07:13:04;1.40;;;0.70;;
26540;SDS011;14206;50.202;10.948;2023-04-01T07:16:11;2.25;;;0.80;;
26540;SDS011;14206;50.202;10.948;2023-04-01T07:24:52;3.33;;;0.50;;
26540;SDS011;14206;50.202;10.948;2023-04-01T07:27:20;2.08;;;0.60;;
26540;SDS011;14206;50.202;10.948;2023-04-01T07:29:47;0.77;;;0.50;;
26540;SDS011;14206;50.202;10.948;2023-04-01T07:32:20;1.65;;;0.68;;
26540;SDS011;14206;50.202;10.948;2023-04-01T07:38:08;2.05;;;0.65;;
26540;SDS011;14206;50.202;10.948;2023-04-01T07:40:48;0.65;;;0.47;;
26540;SDS011;14206;50.202;10.948;2023-04-01T07:46:30;1.67;;;0.65;;
26540;SDS011;14206;50.202;10.948;2023-04-01T07:49:29;1.10;;;0.50;;
26540;SDS011;14206;50.202;10.948;2023-04-01T08:00:14;4.35;;;0.77;;
26540;SDS011;14206;50.202;10.948;2023-04-01T08:05:57;3.05;;;0.40;;
26540;SDS011;14206;50.202;10.948;2023-04-01T08:14:34;1.33;;;0.60;;
26540;SDS011;14206;50.202;10.948;2023-04-01T08:22:59;1.87;;;0.60;;
26540;SDS011;14206;50.202;10.948;2023-04-01T08:25:37;2.60;;;0.60;;
26540;SDS011;14206;50.202;10.948;2023-04-01T08:28:13;1.08;;;0.40;;
26540;SDS011;14206;50.202;10.948;2023-04-01T08:31:04;1.75;;;0.50;;
26540;SDS011;14206;50.202;10.948;2023-04-01T08:33:35;3.20;;;0.93;;
26540;SDS011;14206;50.202;10.948;2023-04-01T08:36:25;3.28;;;0.82;;
26540;SDS011;14206;50.202;10.948;2023-04-01T08:39:21;3.63;;;0.70;;
26540;SDS011;14206;50.202;10.948;2023-04-01T08:47:46;2.13;;;0.70;;
26540;SDS011;14206;50.202;10.948;2023-04-01T08:56:34;3.40;;;0.90;;
26540;SDS011;14206;50.202;10.948;2023-04-01T08:59:25;2.35;;;0.70;;
26540;SDS011;14206;50.202;10.948;2023-04-01T09:22:20;4.13;;;1.05;;
26540;SDS011;14206;50.202;10.948;2023-04-01T09:27:43;3.25;;;1.00;;
26540;SDS011;14206;50.202;10.948;2023-04-01T09:42:01;2.05;;;0.60;;
26540;SDS011;14206;50.202;10.948;2023-04-01T09:48:02;2.05;;;0.68;;
26540;SDS011;14206;50.202;10.948;2023-04-01T09:50:42;1.77;;;0.60;;
26540;SDS011;14206;50.202;10.948;2023-04-01T09:53:24;1.38;;;0.63;;
26540;SDS011;14206;50.202;10.948;2023-04-01T09:56:19;1.75;;;0.63;;
26540;SDS011;14206;50.202;10.948;2023-04-01T10:35:44;0.55;;;0.30;;
26540;SDS011;14206;50.202;10.948;2023-04-01T10:48:00;0.28;;;0.13;;
26540;SDS011;14206;50.202;10.948;2023-04-01T10:50:42;0.60;;;0.30;;
26540;SDS011;14206;50.202;10.948;2023-04-01T11:06:22;1.75;;;0.30;;
26540;SDS011;14206;50.202;10.948;2023-04-01T11:11:38;0.30;;;0.30;;
26540;SDS011;14206;50.202;10.948;2023-04-01T11:17:18;0.80;;;0.30;;
26540;SDS011;14206;50.202;10.948;2023-04-01T11:42:31;0.50;;;0.40;;
26540;SDS011;14206;50.202;10.948;2023-04-01T11:45:57;0.77;;;0.40;;
26540;SDS011;14206;50.202;10.948;2023-04-01T11:48:37;0.30;;;0.30;;
26540;SDS011;14206;50.202;10.948;2023-04-01T11:54:12;0.93;;;0.35;;
26540;SDS011;14206;50.202;10.948;2023-04-01T12:02:28;0.57;;;0.40;;
26540;SDS011;14206;50.202;10.948;2023-04-01T12:21:52;0.75;;;0.40;;
26540;SDS011;14206;50.202;10.948;2023-04-01T12:24:45;0.70;;;0.32;;
26540;SDS011;14206;50.202;10.948;2023-04-01T12:30:06;1.55;;;0.32;;
26540;SDS011;14206;50.202;10.948;2023-04-01T12:39:17;1.45;;;0.47;;
26540;SDS011;14206;50.202;10.948;2023-04-01T12:41:59;0.60;;;0.40;;
26540;SDS011;14206;50.202;10.948;2023-04-01T12:47:52;0.30;;;0.30;;
26540;SDS011;14206;50.202;10.948;2023-04-01T12:55:41;0.30;;;0.30;;
26540;SDS011;14206;50.202;10.948;2023-04-01T13:15:13;1.90;;;0.45;;
26540;SDS011;14206;50.202;10.948;2023-04-01T13:17:47;0.68;;;0.40;;
26540;SDS011;14206;50.202;10.948;2023-04-01T13:26:21;0.47;;;0.40;;
26540;SDS011;14206;50.202;10.948;2023-04-01T13:29:00;1.27;;;0.40;;
26540;SDS011;14206;50.202;10.948;2023-04-01T13:43:39;0.65;;;0.10;;
26540;SDS011;14206;50.202;10.948;2023-04-01T13:52:33;0.45;;;0.20;;
26540;SDS011;14206;50.202;10.948;2023-04-01T14:06:23;0.20;;;0.20;;
26540;SDS011;14206;50.202;10.948;2023-04-01T14:31:18;0.40;;;0.40;;
26540;SDS011;14206;50.202;10.948;2023-04-01T14:48:13;0.75;;;0.40;;
26540;SDS011;14206;50.202;10.948;2023-04-01T14:50:51;0.55;;;0.40;;
26540;SDS011;14206;50.202;10.948;2023-04-01T14:58:21;0.20;;;0.20;;
26540;SDS011;14206;50.202;10.948;2023-04-01T15:01:38;0.20;;;0.20;;
26540;SDS011;14206;50.202;10.948;2023-04-01T15:29:15;0.38;;;0.30;;
26540;SDS011;14206;50.202;10.948;2023-04-01T15:40:11;0.70;;;0.40;;
26540;SDS011;14206;50.202;10.948;2023-04-01T16:02:22;0.88;;;0.40;;
26540;SDS011;14206;50.202;10.948;2023-04-01T16:17:05;0.82;;;0.40;;
26540;SDS011;14206;50.202;10.948;2023-04-01T16:22:54;0.30;;;0.30;;
26540;SDS011;14206;50.202;10.948;2023-04-01T16:25:42;0.43;;;0.40;;
26540;SDS011;14206;50.202;10.948;2023-04-01T16:28:42;0.40;;;0.40;;
26540;SDS011;14206;50.202;10.948;2023-04-01T16:34:17;0.40;;;0.40;;
26540;SDS011;14206;50.202;10.948;2023-04-01T16:40:16;0.73;;;0.40;;
26540;SDS011;14206;50.202;10.948;2023-04-01T16:42:53;0.43;;;0.40;;
26540;SDS011;14206;50.202;10.948;2023-04-01T16:45:33;0.28;;;0.20;;
26540;SDS011;14206;50.202;10.948;2023-04-01T16:48:15;0.57;;;0.50;;
26540;SDS011;14206;50.202;10.948;2023-04-01T16:50:59;0.20;;;0.20;;
26540;SDS011;14206;50.202;10.948;2023-04-01T16:56:17;0.25;;;0.25;;
26540;SDS011;14206;50.202;10.948;2023-04-01T17:01:33;0.40;;;0.40;;
26540;SDS011;14206;50.202;10.948;2023-04-01T17:04:17;0.63;;;0.47;;
26540;SDS011;14206;50.202;10.948;2023-04-01T17:06:58;0.68;;;0.30;;
26540;SDS011;14206;50.202;10.948;2023-04-01T17:12:26;0.77;;;0.55;;
26540;SDS011;14206;50.202;10.948;2023-04-01T17:25:25;0.50;;;0.45;;
26540;SDS011;14206;50.202;10.948;2023-04-01T17:28:05;0.50;;;0.40;;
26540;SDS011;14206;50.202;10.948;2023-04-01T17:31:02;0.50;;;0.50;;
26540;SDS011;14206;50.202;10.948;2023-04-01T17:33:59;0.70;;;0.50;;
26540;SDS011;14206;50.202;10.948;2023-04-01T17:37:00;0.47;;;0.47;;
26540;SDS011;14206;50.202;10.948;2023-04-01T17:39:41;1.00;;;0.60;;
26540;SDS011;14206;50.202;10.948;2023-04-01T17:42:15;0.60;;;0.60;;
26540;SDS011;14206;50.202;10.948;2023-04-01T17:52:58;0.38;;;0.38;;
26540;SDS011;14206;50.202;10.948;2023-04-01T18:04:38;1.52;;;0.70;;
26540;SDS011;14206;50.202;10.948;2023-04-01T18:07:30;1.00;;;0.60;;
26540;SDS011;14206;50.202;10.948;2023-04-01T18:15:37;0.82;;;0.80;;
26540;SDS011;14206;50.202;10.948;2023-04-01T18:21:19;0.70;;;0.70;;
26540;SDS011;14206;50.202;10.948;2023-04-01T18:24:34;0.73;;;0.73;;
26540;SDS011;14206;50.202;10.948;2023-04-01T18:29:52;0.70;;;0.70;;
26540;SDS011;14206;50.202;10.948;2023-04-01T18:32:27;0.60;;;0.60;;
26540;SDS011;14206;50.202;10.948;2023-04-01T18:37:48;0.50;;;0.50;;
26540;SDS011;14206;50.202;10.948;2023-04-01T18:43:02;1.67;;;0.70;;
26540;SDS011;14206;50.202;10.948;2023-04-01T18:51:33;0.73;;;0.70;;
26540;SDS011;14206;50.202;10.948;2023-04-01T18:54:19;0.70;;;0.68;;
26540;SDS011;14206;50.202;10.948;2023-04-01T18:56:49;0.80;;;0.80;;
26540;SDS011;14206;50.202;10.948;2023-04-01T18:59:21;0.95;;;0.90;;
26540;SDS011;14206;50.202;10.948;2023-04-01T19:07:39;0.80;;;0.80;;
26540;SDS011;14206;50.202;10.948;2023-04-01T19:10:14;0.80;;;0.80;;
26540;SDS011;14206;50.202;10.948;2023-04-01T19:15:31;1.10;;;1.00;;
26540;SDS011;14206;50.202;10.948;2023-04-01T19:21:16;1.15;;;1.05;;
26540;SDS011;14206;50.202;10.948;2023-04-01T19:35:42;1.33;;;1.02;;
26540;SDS011;14206;50.202;10.948;2023-04-01T19:38:39;0.88;;;0.88;;
26540;SDS011;14206;50.202;10.948;2023-04-01T19:46:44;1.10;;;1.00;;
26540;SDS011;14206;50.202;10.948;2023-04-01T20:05:26;0.70;;;0.70;;
26540;SDS011;14206;50.202;10.948;2023-04-01T20:08:20;0.73;;;0.73;;
26540;SDS011;14206;50.202;10.948;2023-04-01T20:19:35;0.40;;;0.40;;
26540;SDS011;14206;50.202;10.948;2023-04-01T20:22:04;0.40;;;0.40;;
26540;SDS011;14206;50.202;10.948;2023-04-01T20:24:43;0.52;;;0.52;;
26540;SDS011;14206;50.202;10.948;2023-04-01T20:32:43;0.60;;;0.60;;
26540;SDS011;14206;50.202;10.948;2023-04-01T20:35:18;0.50;;;0.50;;
26540;SDS011;14206;50.202;10.948;2023-04-01T20:43:48;0.50;;;0.50;;
26540;SDS011;14206;50.202;10.948;2023-04-01T20:58:16;0.40;;;0.40;;
26540;SDS011;14206;50.202;10.948;2023-04-01T21:17:22;0.40;;;0.40;;
26540;SDS011;14206;50.202;10.948;2023-04-01T21:30:49;0.45;;;0.45;;
26540;SDS011;14206;50.202;10.948;2023-04-01T21:33:38;0.68;;;0.60;;
26540;SDS011;14206;50.202;10.948;2023-04-01T22:12:00;0.40;;;0.40;;
26540;SDS011;14206;50.202;10.948;2023-04-01T22:17:15;0.40;;;0.40;;
26540;SDS011;14206;50.202;10.948;2023-04-01T22:22:49;0.40;;;0.40;;
26540;SDS011;14206;50.202;10.948;2023-04-01T22:28:32;0.50;;;0.50;;
26540;SDS011;14206;50.202;10.948;2023-04-01T22:31:19;0.40;;;0.40;;
26540;SDS011;14206;50.202;10.948;2023-04-01T22:33:56;0.38;;;0.38;;
26540;SDS011;14206;50.202;10.948;2023-04-01T22:39:28;0.57;;;0.47;;
26540;SDS011;14206;50.202;10.948;2023-04-01T22:45:18;0.50;;;0.50;;
26540;SDS011;14206;50.202;10.948;2023-04-01T22:53:23;0.52;;;0.52;;
26540;SDS011;14206;50.202;10.948;2023-04-01T22:56:12;0.52;;;0.50;;
26540;SDS011;14206;50.202;10.948;2023-04-01T22:59:00;0.50;;;0.50;;
26540;SDS011;14206;50.202;10.948;2023-04-01T23:01:38;1.33;;;0.60;;
26540;SDS011;14206;50.202;10.948;2023-04-01T23:04:17;0.85;;;0.70;;
26540;SDS011;14206;50.202;10.948;2023-04-01T23:06:52;0.60;;;0.60;;
26540;SDS011;14206;50.202;10.948;2023-04-01T23:09:25;1.00;;;0.65;;
26540;SDS011;14206;50.202;10.948;2023-04-01T23:11:58;0.68;;;0.60;;
26540;SDS011;14206;50.202;10.948;2023-04-01T23:14:34;0.77;;;0.60;;
26540;SDS011;14206;50.202;10.948;2023-04-01T23:22:37;0.90;;;0.70;;
26540;SDS011;14206;50.202;10.948;2023-04-01T23:25:21;0.63;;;0.63;;
26540;SDS011;14206;50.202;10.948;2023-04-01T23:33:26;0.55;;;0.55;;
26540;SDS011;14206;50.202;10.948;2023-04-01T23:36:09;0.80;;;0.80;;
26540;SDS011;14206;50.202;10.948;2023-04-01T23:38:40;1.00;;;1.00;;
26540;SDS011;14206;50.202;10.948;2023-04-01T23:41:09;0.90;;;0.90;;
26540;SDS011;14206;50.202;10.948;2023-04-01T23:43:48;1.17;;;1.00;;
26540;SDS011;14206;50.202;10.948;2023-04-01T23:46:24;1.00;;;1.00;;
26540;SDS011;14206;50.202;10.948;2023-04-01T23:48:52;0.85;;;0.85;;
26540;SDS011;14206;50.202;10.948;2023-04-01T23:51:23;1.02;;;0.98;;
26540;SDS011;14206;50.202;10.948;2023-04-01T23:54:01;0.85;;;0.85;;
26540;SDS011;14206;50.202;10.948;2023-04-01T23:56:40;0.90;;;0.90;;
26540;SDS011;14206;50.202;10.948;2023-04-01T23:59:14;1.60;;;0.90;;
